Troy, Alabama
Current Conditions -  °F | °C
As of 6:53 AM on Monday 22 Dec 2014 (Local Time) from KTOI Reporting Station
Haze Haze  
Wind Chill: 50°   Ceiling: 200
Heat Index: 50°   Visibility: 1.5mi
Dew Point: 49°   Wind: 7mph
Humidity: 96%   Direction: 90°E
Pressure: 29.99"   Gusts: NA
Location:  31.81°N, 85.97°W
Report Text: KTOI 221253Z AUTO 09006KT 1 1/2SM BR OVC002 10/09 A2999 RMK AO2 SLP153 T01000094
Loading
Personal Weather Stations






























Interactive Weather Map New forecast layout! Learn more

10-Day Weather Forecast

Advertisements
Track Severe Weather on mobile